createdAt,value
2018-06-28T00:00:39.447Z,16.55
2018-06-28T00:01:39.430Z,16.62
2018-06-28T00:02:39.413Z,16.77
2018-06-28T00:03:39.393Z,16.80
2018-06-28T00:04:39.375Z,16.90
2018-06-28T00:05:39.358Z,16.81
2018-06-28T00:06:39.340Z,16.90
2018-06-28T00:07:39.322Z,16.90
2018-06-28T00:08:39.303Z,16.81
2018-06-28T00:09:39.287Z,16.89
2018-06-28T00:10:39.267Z,16.98
2018-06-28T00:11:39.250Z,16.92
2018-06-28T00:12:39.231Z,16.90
2018-06-28T00:13:39.216Z,16.88
2018-06-28T00:14:39.197Z,16.96
2018-06-28T00:15:39.178Z,16.89
2018-06-28T00:16:39.159Z,16.88
2018-06-28T00:17:39.141Z,16.93
2018-06-28T00:18:39.125Z,16.75
2018-06-28T00:19:39.109Z,16.80
2018-06-28T00:20:39.086Z,16.77
2018-06-28T00:21:39.069Z,16.71
2018-06-28T00:22:39.051Z,16.71
2018-06-28T00:23:39.035Z,16.63
2018-06-28T00:24:39.014Z,16.74
2018-06-28T00:25:38.998Z,16.59
2018-06-28T00:26:38.979Z,16.63
2018-06-28T00:27:38.959Z,16.50
2018-06-28T00:28:38.941Z,16.45
2018-06-28T00:29:38.923Z,16.44
2018-06-28T00:30:38.905Z,16.34
2018-06-28T00:31:38.888Z,16.38
2018-06-28T00:32:38.871Z,16.25
2018-06-28T00:33:38.852Z,16.16
2018-06-28T00:34:38.834Z,16.23
2018-06-28T00:35:38.814Z,16.04
2018-06-28T00:36:38.795Z,16.09
2018-06-28T00:37:38.781Z,16.00
2018-06-28T00:38:38.760Z,15.94
2018-06-28T00:39:38.744Z,15.94
2018-06-28T00:40:38.724Z,15.94
2018-06-28T00:41:38.705Z,15.81
2018-06-28T00:42:38.689Z,15.75
2018-06-28T00:43:38.704Z,15.76
2018-06-28T00:44:38.649Z,15.66
2018-06-28T00:45:38.633Z,15.52
2018-06-28T00:46:38.615Z,15.59
2018-06-28T00:47:38.595Z,15.56
2018-06-28T00:48:38.576Z,15.48
2018-06-28T00:49:38.558Z,15.52
2018-06-28T00:50:38.541Z,15.49
2018-06-28T00:51:38.524Z,15.56
2018-06-28T00:52:38.503Z,15.45
2018-06-28T00:53:38.484Z,15.56
2018-06-28T00:54:38.470Z,15.61
2018-06-28T00:55:38.448Z,15.56
2018-06-28T00:56:38.428Z,15.60
2018-06-28T00:57:38.410Z,15.51
2018-06-28T00:58:38.392Z,15.54
2018-06-28T00:59:38.372Z,15.48
2018-06-28T01:00:38.355Z,15.45
2018-06-28T01:01:38.336Z,15.43
2018-06-28T01:02:38.319Z,15.52
2018-06-28T01:03:38.299Z,15.57
2018-06-28T01:04:38.281Z,15.60
2018-06-28T01:05:38.262Z,15.60
2018-06-28T01:06:38.243Z,15.61
2018-06-28T01:07:38.226Z,15.64
2018-06-28T01:08:38.206Z,15.63
2018-06-28T01:09:38.187Z,15.57
2018-06-28T01:10:38.171Z,15.60
2018-06-28T01:11:38.150Z,15.56
2018-06-28T01:12:38.131Z,15.59
2018-06-28T01:13:38.113Z,15.60
2018-06-28T01:14:38.096Z,15.64
2018-06-28T01:15:38.080Z,15.57
2018-06-28T01:16:38.058Z,15.78
2018-06-28T01:17:38.039Z,15.74
2018-06-28T01:18:38.051Z,15.72
2018-06-28T01:19:38.002Z,15.84
2018-06-28T01:20:37.982Z,15.75
2018-06-28T01:21:37.964Z,15.76
2018-06-28T01:22:37.946Z,15.72
2018-06-28T01:23:37.925Z,15.75
2018-06-28T01:24:37.908Z,15.70
2018-06-28T01:25:37.889Z,15.70
2018-06-28T01:26:37.871Z,15.79
2018-06-28T01:27:37.855Z,15.82
2018-06-28T01:28:37.832Z,15.81
2018-06-28T01:29:37.868Z,15.78
2018-06-28T01:30:37.796Z,15.76
2018-06-28T01:31:37.775Z,15.84
2018-06-28T01:32:37.758Z,15.82
2018-06-28T01:33:37.738Z,15.76
2018-06-28T01:34:37.720Z,15.88
2018-06-28T01:35:37.702Z,15.82
2018-06-28T01:36:37.683Z,15.76
2018-06-28T01:37:37.666Z,15.92
2018-06-28T01:38:37.648Z,15.88
2018-06-28T01:39:37.627Z,15.84
2018-06-28T01:40:37.606Z,15.92
2018-06-28T01:41:37.588Z,15.89
2018-06-28T01:42:37.570Z,15.84
2018-06-28T01:43:37.550Z,15.82
2018-06-28T01:44:37.531Z,15.84
2018-06-28T01:45:37.512Z,15.82
2018-06-28T01:46:37.494Z,15.81
2018-06-28T01:47:37.474Z,15.79
2018-06-28T01:48:37.455Z,15.72
2018-06-28T01:49:37.437Z,15.70
2018-06-28T01:50:37.419Z,15.72
2018-06-28T01:51:37.399Z,15.67
2018-06-28T01:52:37.382Z,15.70
2018-06-28T01:53:37.361Z,15.74
2018-06-28T01:54:37.346Z,15.60
2018-06-28T01:55:37.322Z,15.64
2018-06-28T01:56:37.302Z,15.57
2018-06-28T01:57:37.285Z,15.56
2018-06-28T01:58:37.267Z,15.46
2018-06-28T01:59:37.247Z,15.49
2018-06-28T02:00:37.229Z,15.49
2018-06-28T02:01:37.209Z,15.48
2018-06-28T02:02:37.189Z,15.52
2018-06-28T02:03:37.173Z,15.51
2018-06-28T02:04:37.150Z,15.52
2018-06-28T02:05:37.132Z,15.42
2018-06-28T02:06:37.113Z,15.46
2018-06-28T02:07:37.095Z,15.38
2018-06-28T02:08:37.075Z,15.35
2018-06-28T02:09:37.057Z,15.27
2018-06-28T02:10:37.040Z,15.41
2018-06-28T02:11:37.017Z,15.28
2018-06-28T02:12:36.999Z,15.42
2018-06-28T02:13:36.979Z,15.31
2018-06-28T02:14:36.960Z,15.26
2018-06-28T02:15:36.941Z,15.24
2018-06-28T02:16:36.922Z,15.27
2018-06-28T02:17:36.904Z,15.15
2018-06-28T02:18:36.897Z,15.13
2018-06-28T02:19:36.867Z,15.20
2018-06-28T02:20:36.846Z,15.20
2018-06-28T02:21:36.830Z,15.15
2018-06-28T02:22:36.808Z,15.24
2018-06-28T02:23:36.789Z,15.20
2018-06-28T02:24:36.770Z,15.23
2018-06-28T02:25:36.750Z,15.23
2018-06-28T02:26:36.735Z,15.21
2018-06-28T02:27:36.712Z,15.21
2018-06-28T02:28:36.693Z,15.30
2018-06-28T02:29:36.674Z,15.23
2018-06-28T02:30:36.655Z,15.30
2018-06-28T02:31:36.634Z,15.21
2018-06-28T02:32:36.615Z,15.19
2018-06-28T02:33:36.596Z,15.24
2018-06-28T02:34:36.577Z,15.21
2018-06-28T02:35:36.558Z,15.21
2018-06-28T02:36:36.539Z,15.23
2018-06-28T02:37:36.519Z,15.11
2018-06-28T02:38:36.500Z,15.01
2018-06-28T02:39:36.480Z,15.15
2018-06-28T02:40:36.462Z,15.11
2018-06-28T02:41:36.444Z,15.02
2018-06-28T02:42:36.422Z,15.03
2018-06-28T02:43:36.404Z,15.05
2018-06-28T02:44:36.388Z,15.08
2018-06-28T02:45:36.365Z,15.03
2018-06-28T02:46:36.345Z,15.11
2018-06-28T02:47:36.325Z,15.09
2018-06-28T02:48:36.307Z,14.99
2018-06-28T02:49:36.287Z,14.99
2018-06-28T02:50:36.272Z,15.01
2018-06-28T02:51:36.247Z,14.94
2018-06-28T02:52:36.229Z,14.95
2018-06-28T02:53:36.209Z,14.99
2018-06-28T02:54:36.191Z,15.01
2018-06-28T02:55:36.171Z,14.95
2018-06-28T02:56:36.152Z,14.88
2018-06-28T02:57:36.132Z,14.90
2018-06-28T02:58:36.113Z,14.90
2018-06-28T02:59:36.093Z,14.84
2018-06-28T03:00:36.074Z,14.90
2018-06-28T03:01:36.055Z,14.87
2018-06-28T03:02:36.035Z,14.83
2018-06-28T03:03:36.016Z,14.87
2018-06-28T03:04:35.996Z,14.91
2018-06-28T03:05:35.976Z,15.02
2018-06-28T03:06:35.956Z,14.87
2018-06-28T03:07:35.936Z,14.94
2018-06-28T03:08:35.917Z,14.90
2018-06-28T03:09:35.909Z,14.87
2018-06-28T03:10:35.881Z,14.90
2018-06-28T03:11:35.862Z,14.83
2018-06-28T03:12:35.839Z,14.80
2018-06-28T03:13:36.570Z,14.75
2018-06-28T03:14:35.802Z,14.75
2018-06-28T03:15:35.781Z,14.72
2018-06-28T03:16:35.767Z,14.71
2018-06-28T03:17:35.742Z,14.67
2018-06-28T03:18:35.724Z,14.80
2018-06-28T03:19:35.704Z,14.71
2018-06-28T03:20:35.684Z,14.62
2018-06-28T03:21:35.665Z,14.67
2018-06-28T03:22:35.648Z,14.62
2018-06-28T03:23:35.625Z,14.61
2018-06-28T03:24:35.605Z,14.53
2018-06-28T03:25:35.587Z,14.39
2018-06-28T03:26:35.566Z,14.39
2018-06-28T03:27:35.546Z,14.46
2018-06-28T03:28:35.527Z,14.43
2018-06-28T03:29:37.010Z,14.29
2018-06-28T03:30:35.491Z,14.27
2018-06-28T03:31:35.478Z,14.38
2018-06-28T03:32:35.450Z,14.32
2018-06-28T03:33:35.435Z,14.29
2018-06-28T03:34:35.411Z,14.31
2018-06-28T03:35:35.390Z,14.29
2018-06-28T03:36:35.371Z,14.34
2018-06-28T03:37:35.432Z,14.32
2018-06-28T03:38:35.334Z,14.29
2018-06-28T03:39:35.313Z,14.34
2018-06-28T03:40:35.294Z,14.37
2018-06-28T03:41:35.275Z,14.25
2018-06-28T03:42:35.254Z,14.28
2018-06-28T03:43:35.236Z,14.34
2018-06-28T03:44:35.216Z,14.29
2018-06-28T03:45:35.195Z,14.32
2018-06-28T03:46:35.176Z,14.38
2018-06-28T03:47:35.155Z,14.28
2018-06-28T03:48:35.139Z,14.34
2018-06-28T03:49:35.117Z,14.29
2018-06-28T03:50:35.097Z,14.37
2018-06-28T03:51:35.080Z,14.28
2018-06-28T03:52:35.058Z,14.29
2018-06-28T03:53:35.038Z,14.43
2018-06-28T03:54:35.020Z,14.39
2018-06-28T03:55:34.999Z,14.44
2018-06-28T03:56:37.231Z,14.32
2018-06-28T03:57:34.962Z,14.42
2018-06-28T03:58:34.942Z,14.34
2018-06-28T03:59:34.921Z,14.46
2018-06-28T04:00:34.901Z,14.47
2018-06-28T04:01:34.882Z,14.47
2018-06-28T04:02:35.614Z,14.42
2018-06-28T04:03:34.844Z,14.46
2018-06-28T04:04:34.824Z,14.46
2018-06-28T04:05:34.804Z,14.49
2018-06-28T04:06:34.854Z,14.44
2018-06-28T04:07:34.764Z,14.43
2018-06-28T04:08:34.745Z,14.49
2018-06-28T04:09:34.724Z,14.44
2018-06-28T04:10:34.705Z,14.46
2018-06-28T04:11:34.686Z,14.50
2018-06-28T04:12:34.665Z,14.53
2018-06-28T04:13:34.647Z,14.44
2018-06-28T04:14:34.628Z,14.54
2018-06-28T04:15:34.606Z,14.50
2018-06-28T04:16:34.614Z,14.57
2018-06-28T04:17:34.568Z,14.47
2018-06-28T04:18:34.550Z,14.53
2018-06-28T04:19:34.529Z,14.54
2018-06-28T04:20:34.510Z,14.52
2018-06-28T04:21:34.489Z,14.42
2018-06-28T04:22:34.503Z,14.42
2018-06-28T04:23:34.450Z,14.42
2018-06-28T04:24:34.434Z,14.35
2018-06-28T04:25:34.411Z,14.38
2018-06-28T04:26:34.393Z,14.34
2018-06-28T04:27:34.400Z,14.38
2018-06-28T04:28:34.352Z,14.29
2018-06-28T04:29:34.333Z,14.29
2018-06-28T04:30:34.320Z,14.32
2018-06-28T04:31:34.293Z,14.31
2018-06-28T04:32:34.274Z,14.32
2018-06-28T04:33:34.255Z,14.28
2018-06-28T04:34:34.235Z,14.32
2018-06-28T04:35:34.215Z,14.42
2018-06-28T04:36:34.195Z,14.52
2018-06-28T04:37:34.176Z,14.60
2018-06-28T04:38:34.157Z,14.67
2018-06-28T04:39:34.139Z,14.65
2018-06-28T04:40:34.118Z,14.81
2018-06-28T04:41:34.098Z,14.74
2018-06-28T04:42:34.079Z,14.90
2018-06-28T04:43:34.061Z,14.90
2018-06-28T04:44:34.039Z,14.88
2018-06-28T04:45:34.021Z,14.88
2018-06-28T04:46:34.002Z,14.90
2018-06-28T04:47:33.981Z,14.90
2018-06-28T04:48:33.963Z,14.81
2018-06-28T04:49:33.947Z,14.91
2018-06-28T04:50:33.922Z,14.84
2018-06-28T04:51:33.902Z,14.91
2018-06-28T04:52:33.882Z,14.91
2018-06-28T04:53:33.863Z,14.87
2018-06-28T04:54:33.845Z,14.93
2018-06-28T04:55:33.824Z,15.02
2018-06-28T04:56:33.805Z,14.98
2018-06-28T04:57:33.788Z,15.12
2018-06-28T04:58:33.766Z,15.12
2018-06-28T04:59:33.746Z,15.15
2018-06-28T05:00:33.728Z,15.20
2018-06-28T05:01:36.711Z,15.26
2018-06-28T05:02:33.689Z,15.24
2018-06-28T05:03:33.669Z,15.17
2018-06-28T05:04:33.650Z,15.19
2018-06-28T05:05:33.633Z,15.19
2018-06-28T05:06:33.612Z,15.21
2018-06-28T05:07:34.342Z,15.31
2018-06-28T05:08:33.572Z,15.30
2018-06-28T05:09:33.551Z,15.28
2018-06-28T05:10:33.533Z,15.31
2018-06-28T05:11:33.512Z,15.27
2018-06-28T05:12:33.493Z,15.33
2018-06-28T05:13:33.475Z,15.27
2018-06-28T05:14:33.456Z,15.35
2018-06-28T05:15:33.434Z,15.42
2018-06-28T05:16:33.416Z,15.48
2018-06-28T05:17:33.400Z,15.45
2018-06-28T05:18:34.129Z,15.43
2018-06-28T05:19:33.358Z,15.52
2018-06-28T05:20:33.339Z,15.63
2018-06-28T05:21:33.319Z,15.70
2018-06-28T05:22:33.302Z,15.78
2018-06-28T05:23:33.281Z,15.78
2018-06-28T05:24:33.261Z,15.84
2018-06-28T05:25:33.242Z,15.78
2018-06-28T05:26:33.222Z,15.88
2018-06-28T05:27:33.202Z,15.96
2018-06-28T05:28:33.184Z,15.96
2018-06-28T05:29:33.165Z,15.94
2018-06-28T05:30:33.149Z,15.94
2018-06-28T05:31:33.127Z,16.00
2018-06-28T05:32:33.113Z,16.01
2018-06-28T05:33:33.088Z,16.04
2018-06-28T05:34:33.076Z,16.07
2018-06-28T05:35:33.048Z,16.04
2018-06-28T05:36:33.030Z,16.03
2018-06-28T05:37:33.011Z,16.15
2018-06-28T05:38:32.991Z,16.16
2018-06-28T05:39:32.973Z,16.20
2018-06-28T05:40:32.952Z,16.14
2018-06-28T05:41:32.940Z,16.25
2018-06-28T05:42:32.915Z,16.25
2018-06-28T05:43:32.895Z,16.27
2018-06-28T05:44:32.876Z,16.34
2018-06-28T05:45:32.857Z,16.35
2018-06-28T05:46:32.841Z,16.44
2018-06-28T05:47:32.817Z,16.45
2018-06-28T05:48:32.798Z,16.41
2018-06-28T05:49:32.779Z,16.55
2018-06-28T05:50:33.511Z,16.63
2018-06-28T05:51:32.741Z,16.62
2018-06-28T05:52:32.816Z,16.62
2018-06-28T05:53:32.702Z,16.67
2018-06-28T05:54:32.684Z,16.71
2018-06-28T05:55:32.664Z,16.71
2018-06-28T05:56:32.645Z,16.71
2018-06-28T05:57:32.627Z,16.75
2018-06-28T05:58:32.609Z,16.86
2018-06-28T05:59:32.589Z,16.92
2018-06-28T06:00:32.569Z,16.92
2018-06-28T06:01:32.551Z,16.95
2018-06-28T06:02:32.533Z,16.95
2018-06-28T06:03:32.513Z,16.98
2018-06-28T06:04:32.495Z,17.03
2018-06-28T06:05:32.475Z,17.04
2018-06-28T06:06:32.456Z,17.03
2018-06-28T06:07:32.437Z,17.03
2018-06-28T06:08:32.419Z,17.07
2018-06-28T06:09:32.402Z,17.00
2018-06-28T06:10:32.382Z,17.08
2018-06-28T06:11:32.363Z,17.07
2018-06-28T06:12:32.347Z,17.13
2018-06-28T06:13:32.325Z,17.11
2018-06-28T06:14:32.306Z,16.98
2018-06-28T06:15:32.288Z,16.99
2018-06-28T06:16:32.270Z,17.04
2018-06-28T06:17:33.000Z,17.13
2018-06-28T06:18:32.233Z,17.04
2018-06-28T06:19:32.212Z,16.96
2018-06-28T06:20:32.197Z,17.07
2018-06-28T06:21:32.178Z,17.13
2018-06-28T06:22:32.156Z,17.14
2018-06-28T06:23:32.141Z,17.22
2018-06-28T06:24:32.118Z,17.36
2018-06-28T06:25:32.100Z,17.40
2018-06-28T06:26:32.084Z,17.40
2018-06-28T06:27:32.063Z,17.48
2018-06-28T06:28:32.043Z,17.50
2018-06-28T06:29:32.148Z,17.55
2018-06-28T06:30:32.008Z,17.55
2018-06-28T06:31:31.993Z,17.67
2018-06-28T06:32:31.968Z,17.66
2018-06-28T06:33:31.951Z,17.78
2018-06-28T06:34:31.932Z,17.64
2018-06-28T06:35:31.914Z,17.54
2018-06-28T06:36:31.895Z,17.64
2018-06-28T06:37:31.876Z,17.73
2018-06-28T06:38:31.857Z,17.85
2018-06-28T06:39:31.838Z,17.87
2018-06-28T06:40:31.821Z,17.87
2018-06-28T06:41:31.802Z,17.92
2018-06-28T06:42:31.784Z,17.94
2018-06-28T06:43:31.765Z,17.94
2018-06-28T06:44:31.745Z,18.02
2018-06-28T06:45:31.729Z,17.89
2018-06-28T06:46:31.711Z,17.84
2018-06-28T06:47:31.690Z,17.82
2018-06-28T06:48:31.672Z,17.94
2018-06-28T06:49:31.654Z,17.91
2018-06-28T06:50:31.636Z,18.06
2018-06-28T06:51:31.619Z,18.13
2018-06-28T06:52:31.600Z,18.24
2018-06-28T06:53:31.582Z,18.22
2018-06-28T06:54:31.566Z,18.24
2018-06-28T06:55:31.543Z,18.27
2018-06-28T06:56:31.525Z,18.24
2018-06-28T06:57:31.535Z,18.13
2018-06-28T06:58:31.489Z,18.19
2018-06-28T06:59:31.470Z,18.22
2018-06-28T07:00:31.454Z,18.15
2018-06-28T07:01:31.435Z,18.21
2018-06-28T07:02:31.420Z,18.12
2018-06-28T07:03:31.470Z,18.21
2018-06-28T07:04:31.417Z,18.24
2018-06-28T07:05:31.362Z,18.28
2018-06-28T07:06:31.345Z,18.34
2018-06-28T07:07:31.326Z,18.34
2018-06-28T07:08:32.059Z,18.39
2018-06-28T07:09:31.291Z,18.42
2018-06-28T07:10:31.320Z,18.42
2018-06-28T07:11:31.254Z,18.36
2018-06-28T07:12:31.235Z,18.40
2018-06-28T07:13:31.220Z,18.44
2018-06-28T07:14:31.200Z,18.50
2018-06-28T07:15:31.195Z,18.49
2018-06-28T07:16:31.165Z,18.73
2018-06-28T07:17:31.147Z,18.64
2018-06-28T07:18:31.128Z,18.65
2018-06-28T07:19:31.859Z,18.62
2018-06-28T07:20:31.091Z,18.61
2018-06-28T07:21:31.076Z,18.73
2018-06-28T07:22:31.060Z,18.82
2018-06-28T07:23:31.040Z,18.77
2018-06-28T07:24:31.029Z,18.64
2018-06-28T07:25:31.002Z,18.77
2018-06-28T07:26:30.986Z,18.62
2018-06-28T07:27:30.967Z,18.62
2018-06-28T07:28:31.000Z,18.70
2018-06-28T07:29:30.932Z,18.74
2018-06-28T07:30:30.914Z,18.79
2018-06-28T07:31:30.896Z,18.83
2018-06-28T07:32:30.877Z,18.83
2018-06-28T07:33:30.864Z,18.97
2018-06-28T07:34:30.842Z,18.82
2018-06-28T07:35:30.824Z,18.86
2018-06-28T07:36:30.807Z,18.83
2018-06-28T07:37:30.796Z,18.86
2018-06-28T07:38:30.775Z,18.86
2018-06-28T07:39:30.754Z,18.80
2018-06-28T07:40:30.736Z,18.82
2018-06-28T07:41:30.719Z,18.90
2018-06-28T07:42:30.779Z,18.95
2018-06-28T07:43:30.683Z,18.99
2018-06-28T07:44:30.667Z,19.08
2018-06-28T07:45:31.399Z,19.15
2018-06-28T07:46:30.631Z,19.25
2018-06-28T07:47:30.613Z,19.29
2018-06-28T07:48:30.597Z,19.46
2018-06-28T07:49:30.579Z,19.55
2018-06-28T07:50:30.561Z,19.43
2018-06-28T07:51:30.542Z,19.43
2018-06-28T07:52:30.525Z,19.54
2018-06-28T07:53:30.510Z,19.42
2018-06-28T07:54:30.493Z,19.38
2018-06-28T07:55:30.480Z,19.43
2018-06-28T07:56:30.460Z,19.54
2018-06-28T07:57:30.439Z,19.60
2018-06-28T07:58:30.423Z,19.57
2018-06-28T07:59:30.407Z,19.63
2018-06-28T08:00:30.387Z,19.60
2018-06-28T08:01:30.370Z,19.63
2018-06-28T08:02:30.409Z,19.75
2018-06-28T08:03:30.334Z,19.75
2018-06-28T08:04:30.318Z,19.73
2018-06-28T08:05:30.302Z,19.79
2018-06-28T08:06:30.287Z,19.84
2018-06-28T08:07:30.265Z,19.84
2018-06-28T08:08:30.249Z,19.91
2018-06-28T08:09:30.231Z,19.97
2018-06-28T08:10:30.216Z,19.93
2018-06-28T08:11:30.196Z,19.94
2018-06-28T08:12:30.930Z,19.98
2018-06-28T08:13:30.163Z,19.90
2018-06-28T08:14:30.146Z,19.83
2018-06-28T08:15:30.129Z,19.91
2018-06-28T08:16:30.112Z,20.08
2018-06-28T08:17:30.100Z,20.23
2018-06-28T08:18:30.078Z,20.23
2018-06-28T08:19:30.060Z,20.27
2018-06-28T08:20:30.044Z,20.23
2018-06-28T08:21:30.087Z,20.24
2018-06-28T08:22:30.011Z,20.28
2018-06-28T08:23:32.995Z,20.33
2018-06-28T08:24:29.976Z,20.34
2018-06-28T08:25:29.961Z,20.38
2018-06-28T08:26:29.942Z,20.46
2018-06-28T08:27:29.924Z,20.54
2018-06-28T08:28:29.908Z,20.54
2018-06-28T08:29:35.147Z,20.64
2018-06-28T08:30:29.876Z,20.64
2018-06-28T08:31:29.857Z,20.65
2018-06-28T08:32:29.841Z,20.61
2018-06-28T08:33:29.825Z,20.56
2018-06-28T08:34:29.808Z,20.50
2018-06-28T08:35:29.791Z,20.68
2018-06-28T08:36:29.775Z,20.74
2018-06-28T08:37:29.759Z,20.64
2018-06-28T08:38:29.742Z,20.68
2018-06-28T08:39:29.725Z,20.68
2018-06-28T08:40:29.709Z,20.65
2018-06-28T08:41:29.693Z,20.65
2018-06-28T08:42:29.675Z,20.53
2018-06-28T08:43:29.659Z,20.50
2018-06-28T08:44:29.643Z,20.71
2018-06-28T08:45:29.625Z,20.83
2018-06-28T08:46:29.609Z,20.87
2018-06-28T08:47:29.595Z,20.80
2018-06-28T08:48:29.576Z,20.89
2018-06-28T08:49:29.559Z,21.06
2018-06-28T08:50:29.543Z,20.96
2018-06-28T08:51:29.528Z,20.98
2018-06-28T08:52:29.512Z,20.99
2018-06-28T08:53:29.494Z,20.89
2018-06-28T08:54:29.479Z,20.91
2018-06-28T08:55:29.462Z,21.02
2018-06-28T08:56:29.444Z,20.93
2018-06-28T08:57:30.204Z,20.96
2018-06-28T08:58:29.413Z,20.87
2018-06-28T08:59:29.396Z,20.76
2018-06-28T09:00:29.380Z,20.64
2018-06-28T09:01:29.365Z,20.74
2018-06-28T09:02:29.349Z,20.81
2018-06-28T09:03:29.332Z,20.95
2018-06-28T09:04:29.315Z,20.86
2018-06-28T09:05:29.300Z,20.69
2018-06-28T09:06:29.285Z,20.65
2018-06-28T09:07:29.266Z,20.66
2018-06-28T09:08:29.252Z,20.69
2018-06-28T09:09:29.235Z,20.66
2018-06-28T09:10:29.218Z,20.53
2018-06-28T09:11:29.202Z,20.53
2018-06-28T09:12:29.188Z,20.58
2018-06-28T09:13:29.170Z,20.49
2018-06-28T09:14:29.155Z,20.50
2018-06-28T09:15:29.144Z,20.50
2018-06-28T09:16:29.122Z,20.51
2018-06-28T09:17:29.111Z,20.58
2018-06-28T09:18:29.092Z,20.71
2018-06-28T09:19:29.072Z,20.79
2018-06-28T09:20:29.056Z,20.96
2018-06-28T09:21:29.043Z,21.02
2018-06-28T09:22:29.082Z,20.91
2018-06-28T09:23:32.011Z,20.86
2018-06-28T09:24:28.993Z,20.80
2018-06-28T09:25:28.976Z,20.66
2018-06-28T09:26:28.960Z,20.51
2018-06-28T09:27:28.944Z,20.38
2018-06-28T09:28:28.929Z,20.27
2018-06-28T09:29:28.914Z,20.16
2018-06-28T09:30:28.898Z,20.20
2018-06-28T09:31:28.879Z,20.31
2018-06-28T09:32:28.863Z,20.51
2018-06-28T09:33:28.846Z,20.68
2018-06-28T09:34:28.830Z,20.83
2018-06-28T09:35:28.815Z,20.91
2018-06-28T09:36:28.797Z,21.02
2018-06-28T09:37:28.782Z,21.23
2018-06-28T09:38:28.767Z,21.36
2018-06-28T09:39:28.750Z,21.46
2018-06-28T09:40:28.735Z,21.51
2018-06-28T09:41:28.716Z,21.51
2018-06-28T09:42:28.701Z,21.61
2018-06-28T09:43:28.684Z,21.64
2018-06-28T09:44:28.668Z,21.71
2018-06-28T09:45:28.652Z,21.59
2018-06-28T09:46:28.636Z,21.53
2018-06-28T09:47:28.620Z,21.41
2018-06-28T09:48:28.605Z,21.29
2018-06-28T09:49:28.590Z,21.26
2018-06-28T09:50:30.076Z,21.23
2018-06-28T09:51:28.563Z,21.17
2018-06-28T09:52:28.541Z,21.14
2018-06-28T09:53:28.526Z,21.05
2018-06-28T09:54:28.509Z,21.02
2018-06-28T09:55:28.493Z,20.99
2018-06-28T09:56:34.483Z,21.17
2018-06-28T09:57:28.461Z,21.26
2018-06-28T09:58:28.446Z,21.42
2018-06-28T09:59:28.430Z,21.59
2018-06-28T10:00:28.515Z,21.81
2018-06-28T10:01:28.401Z,21.83
2018-06-28T10:02:34.388Z,21.83
2018-06-28T10:03:28.365Z,21.94
2018-06-28T10:04:28.351Z,21.94
2018-06-28T10:05:28.335Z,21.94
2018-06-28T10:06:28.319Z,21.82
2018-06-28T10:07:28.303Z,21.69
2018-06-28T10:08:29.038Z,21.66
2018-06-28T10:09:28.275Z,21.61
2018-06-28T10:10:28.256Z,21.69
2018-06-28T10:11:28.240Z,21.82
2018-06-28T10:12:28.225Z,21.81
2018-06-28T10:13:28.209Z,21.82
2018-06-28T10:14:28.197Z,21.90
2018-06-28T10:15:28.178Z,21.83
2018-06-28T10:16:28.162Z,21.88
2018-06-28T10:17:28.148Z,21.85
2018-06-28T10:18:28.133Z,21.90
2018-06-28T10:19:28.117Z,22.09
2018-06-28T10:20:28.102Z,21.83
2018-06-28T10:21:28.088Z,21.85
2018-06-28T10:22:28.069Z,22.12
2018-06-28T10:23:28.054Z,22.16
2018-06-28T10:24:28.039Z,22.19
2018-06-28T10:25:28.024Z,21.92
2018-06-28T10:26:28.009Z,21.81
2018-06-28T10:27:27.994Z,21.85
2018-06-28T10:28:27.977Z,21.78
2018-06-28T10:29:27.964Z,21.82
2018-06-28T10:30:27.949Z,21.95
2018-06-28T10:31:27.988Z,21.94
2018-06-28T10:32:27.923Z,22.04
2018-06-28T10:33:27.902Z,22.19
2018-06-28T10:34:27.887Z,22.31
2018-06-28T10:35:27.870Z,22.54
2018-06-28T10:36:27.856Z,22.60
2018-06-28T10:37:27.841Z,22.62
2018-06-28T10:38:27.824Z,22.74
2018-06-28T10:39:27.810Z,22.82
2018-06-28T10:40:27.795Z,22.77
2018-06-28T10:41:27.781Z,22.50
2018-06-28T10:42:27.765Z,22.54
2018-06-28T10:43:27.750Z,22.77
2018-06-28T10:44:27.737Z,22.90
2018-06-28T10:45:27.779Z,23.01
2018-06-28T10:46:27.708Z,22.84
2018-06-28T10:47:27.695Z,22.71
2018-06-28T10:48:27.677Z,22.56
2018-06-28T10:49:27.661Z,22.44
2018-06-28T10:50:27.678Z,22.44
2018-06-28T10:51:27.632Z,22.38
2018-06-28T10:52:27.619Z,22.47
2018-06-28T10:53:27.604Z,22.75
2018-06-28T10:54:27.589Z,22.54
2018-06-28T10:55:27.579Z,22.53
2018-06-28T10:56:27.615Z,22.39
2018-06-28T10:57:27.545Z,22.39
2018-06-28T10:58:27.531Z,22.57
2018-06-28T10:59:27.557Z,22.71
2018-06-28T11:00:27.503Z,22.71
2018-06-28T11:01:27.491Z,22.83
2018-06-28T11:02:27.475Z,22.44
2018-06-28T11:03:27.458Z,22.46
2018-06-28T11:04:27.445Z,22.57
2018-06-28T11:05:27.431Z,22.50
2018-06-28T11:06:27.417Z,22.56
2018-06-28T11:07:27.464Z,22.57
2018-06-28T11:08:27.443Z,22.56
2018-06-28T11:09:27.375Z,22.74
2018-06-28T11:10:27.360Z,22.68
2018-06-28T11:11:27.344Z,22.53
2018-06-28T11:12:27.329Z,22.27
2018-06-28T11:13:27.318Z,22.35
2018-06-28T11:14:27.300Z,22.44
2018-06-28T11:15:27.286Z,22.52
2018-06-28T11:16:27.272Z,22.56
2018-06-28T11:17:28.011Z,22.54
2018-06-28T11:18:27.247Z,22.77
2018-06-28T11:19:27.228Z,22.77
2018-06-28T11:20:27.212Z,22.72
2018-06-28T11:21:27.197Z,22.84
2018-06-28T11:22:27.183Z,23.05
2018-06-28T11:23:27.168Z,23.07
2018-06-28T11:24:27.154Z,22.90
2018-06-28T11:25:27.139Z,23.07
2018-06-28T11:26:27.125Z,23.05
2018-06-28T11:27:27.110Z,23.34
2018-06-28T11:28:28.597Z,23.20
2018-06-28T11:29:27.083Z,23.11
2018-06-28T11:30:27.068Z,22.89
2018-06-28T11:31:27.053Z,23.24
2018-06-28T11:32:27.039Z,23.46
2018-06-28T11:33:27.024Z,23.34
2018-06-28T11:34:29.263Z,22.93
2018-06-28T11:35:26.994Z,23.05
2018-06-28T11:36:26.981Z,23.27
2018-06-28T11:37:26.969Z,23.50
2018-06-28T11:38:26.953Z,23.52
2018-06-28T11:39:26.937Z,23.76
2018-06-28T11:40:27.679Z,23.52
2018-06-28T11:41:26.910Z,23.35
2018-06-28T11:42:26.897Z,23.17
2018-06-28T11:43:26.881Z,23.08
2018-06-28T11:44:26.871Z,23.22
2018-06-28T11:45:26.854Z,23.47
2018-06-28T11:46:26.841Z,23.46
2018-06-28T11:47:26.827Z,23.61
2018-06-28T11:48:26.813Z,23.71
2018-06-28T11:49:26.800Z,23.80
2018-06-28T11:50:26.786Z,23.92
2018-06-28T11:51:26.772Z,24.01
2018-06-28T11:52:26.758Z,23.79
2018-06-28T11:53:26.745Z,23.79
2018-06-28T11:54:26.732Z,23.45
2018-06-28T11:55:26.720Z,23.26
2018-06-28T11:56:26.705Z,23.29
2018-06-28T11:57:26.692Z,23.24
2018-06-28T11:58:26.681Z,23.01
2018-06-28T11:59:26.667Z,22.93
2018-06-28T12:00:26.654Z,22.54
2018-06-28T12:01:26.640Z,22.62
2018-06-28T12:02:26.629Z,22.82
2018-06-28T12:03:26.614Z,22.97
2018-06-28T12:04:26.607Z,23.05
2018-06-28T12:05:26.602Z,22.97
2018-06-28T12:06:29.579Z,22.92
2018-06-28T12:07:26.563Z,22.82
2018-06-28T12:08:26.550Z,22.86
2018-06-28T12:09:26.537Z,22.82
2018-06-28T12:10:26.526Z,22.78
2018-06-28T12:11:26.512Z,22.49
2018-06-28T12:12:26.499Z,22.57
2018-06-28T12:13:26.487Z,22.53
2018-06-28T12:14:26.477Z,22.56
2018-06-28T12:15:26.502Z,22.72
2018-06-28T12:16:26.451Z,22.82
2018-06-28T12:17:26.436Z,22.97
2018-06-28T12:18:26.423Z,22.99
2018-06-28T12:19:26.411Z,23.43
2018-06-28T12:20:26.399Z,23.71
2018-06-28T12:21:26.386Z,23.79
2018-06-28T12:22:26.400Z,23.82
2018-06-28T12:23:26.363Z,23.67
2018-06-28T12:24:26.350Z,23.09
2018-06-28T12:25:26.337Z,22.97
2018-06-28T12:26:26.326Z,22.57
2018-06-28T12:27:26.311Z,22.41
2018-06-28T12:28:26.301Z,22.46
2018-06-28T12:29:26.287Z,22.28
2018-06-28T12:30:26.275Z,22.16
2018-06-28T12:31:26.261Z,22.06
2018-06-28T12:32:26.248Z,22.12
2018-06-28T12:33:26.235Z,22.07
2018-06-28T12:34:26.225Z,22.04
2018-06-28T12:35:26.209Z,22.12
2018-06-28T12:36:26.198Z,22.13
2018-06-28T12:37:26.185Z,21.79
2018-06-28T12:38:26.171Z,21.90
2018-06-28T12:39:26.158Z,22.06
2018-06-28T12:40:26.146Z,22.02
2018-06-28T12:41:26.133Z,21.83
2018-06-28T12:42:26.120Z,21.60
2018-06-28T12:43:29.109Z,21.30
2018-06-28T12:44:26.097Z,21.24
2018-06-28T12:45:26.080Z,21.35
2018-06-28T12:46:26.070Z,21.35
2018-06-28T12:47:26.053Z,21.27
2018-06-28T12:48:26.039Z,21.26
2018-06-28T12:49:26.029Z,21.39
2018-06-28T12:50:26.014Z,21.42
2018-06-28T12:51:25.999Z,21.53
2018-06-28T12:52:25.988Z,21.34